Time;durP1;ratioP1;P1;durP2;ratioP2;P2;SDS_P1;SDS_P2;PMS_P1;PMS_P2;Temp;Humidity;BMP_temperature;BMP_pressure;BME280_temperature;BME280_humidity;BME280_pressure;Samples;Min_cycle;Max_cycle;Signal;HPM_P1;HPM_P2
2023/06/17 00:02:21;;;;;;;12.10;10.73;;;16.90;99.90;;;;;;5076495;28;20114;-76
2023/06/17 00:04:47;;;;;;;14.40;10.45;;;16.90;99.90;;;;;;5075344;28;20052;-75
2023/06/17 00:07:12;;;;;;;14.25;10.07;;;16.90;99.90;;;;;;5092169;28;20123;-74
2023/06/17 00:09:41;;;;;;;13.27;10.48;;;16.90;99.90;;;;;;5077041;28;20133;-76
2023/06/17 00:12:08;;;;;;;15.18;10.88;;;16.90;99.90;;;;;;5058213;28;20165;-76
2023/06/17 00:14:33;;;;;;;15.25;10.85;;;16.80;99.90;;;;;;5042196;28;20048;-76
2023/06/17 00:17:00;;;;;;;12.55;10.15;;;16.80;99.90;;;;;;5062893;28;20048;-76
2023/06/17 00:19:28;;;;;;;11.82;10.15;;;16.80;99.90;;;;;;5085390;28;20132;-77
2023/06/17 00:21:54;;;;;;;19.30;11.18;;;16.80;99.90;;;;;;5073037;28;20044;-75
2023/06/17 00:24:20;;;;;;;13.70;10.27;;;16.80;99.90;;;;;;5073193;28;20036;-77
2023/06/17 00:26:46;;;;;;;16.02;11.48;;;16.80;99.90;;;;;;5056539;28;20055;-75
2023/06/17 00:29:12;;;;;;;13.77;10.95;;;16.70;99.90;;;;;;5059635;28;20156;-76
2023/06/17 00:31:38;;;;;;;13.50;11.45;;;16.60;99.90;;;;;;5069967;28;20473;-76
2023/06/17 00:34:03;;;;;;;12.38;10.57;;;16.60;99.90;;;;;;5071580;28;20456;-75
2023/06/17 00:36:29;;;;;;;14.13;11.98;;;16.60;99.90;;;;;;5062709;28;20048;-76
2023/06/17 00:38:55;;;;;;;14.13;11.55;;;16.50;99.90;;;;;;5044688;28;20049;-74
2023/06/17 00:41:21;;;;;;;15.50;11.60;;;16.50;99.90;;;;;;5038651;28;20036;-74
2023/06/17 00:43:46;;;;;;;14.93;11.35;;;16.50;99.90;;;;;;5048843;28;20492;-74
2023/06/17 00:46:25;;;;;;;14.10;11.80;;;16.50;99.90;;;;;;5062620;28;20067;-75
2023/06/17 00:48:51;;;;;;;21.40;11.48;;;16.50;99.90;;;;;;5054760;28;20411;-75
2023/06/17 00:51:16;;;;;;;16.75;13.00;;;16.50;99.90;;;;;;5059402;28;20036;-75
2023/06/17 00:53:42;;;;;;;16.77;12.85;;;16.50;99.90;;;;;;5061854;28;20032;-74
2023/06/17 00:56:08;;;;;;;16.05;12.82;;;16.50;99.90;;;;;;5060960;28;20078;-76
2023/06/17 00:58:35;;;;;;;17.13;13.32;;;16.50;99.90;;;;;;5041900;28;20060;-76
2023/06/17 01:01:01;;;;;;;15.05;12.63;;;16.50;99.90;;;;;;5059469;28;20045;-75
2023/06/17 01:03:29;;;;;;;16.17;14.43;;;16.60;99.90;;;;;;5069343;28;20040;-75
2023/06/17 01:05:56;;;;;;;17.70;14.73;;;16.50;99.90;;;;;;5077060;28;20532;-74
2023/06/17 01:09:01;;;;;;;21.65;14.35;;;16.50;99.90;;;;;;5054222;28;20032;-75
2023/06/17 01:11:27;;;;;;;16.60;13.57;;;16.50;99.90;;;;;;4977075;28;20050;-76
2023/06/17 01:13:53;;;;;;;15.65;12.98;;;16.50;99.90;;;;;;5049663;28;20105;-76
2023/06/17 01:16:18;;;;;;;16.00;13.30;;;16.50;99.90;;;;;;5046312;28;20048;-75
2023/06/17 01:18:48;;;;;;;16.17;12.55;;;16.50;99.90;;;;;;5086018;28;20376;-75
2023/06/17 01:21:15;;;;;;;15.88;12.65;;;16.60;99.90;;;;;;5021442;28;20076;-74
2023/06/17 01:23:41;;;;;;;18.67;13.53;;;16.50;99.90;;;;;;5065618;28;20046;-76
2023/06/17 01:26:07;;;;;;;15.60;12.95;;;16.50;99.90;;;;;;5071385;28;20383;-74
2023/06/17 01:28:33;;;;;;;15.90;12.98;;;16.50;99.90;;;;;;5030817;28;20040;-75
2023/06/17 01:30:59;;;;;;;17.77;13.57;;;16.50;99.90;;;;;;5078006;28;20653;-75
2023/06/17 01:33:25;;;;;;;15.65;13.25;;;16.50;99.90;;;;;;5048986;28;20059;-74
2023/06/17 01:36:02;;;;;;;20.77;15.45;;;16.50;99.90;;;;;;5077708;28;20048;-75
2023/06/17 01:38:30;;;;;;;18.48;13.85;;;16.50;99.90;;;;;;5069384;28;20365;-76
2023/06/17 01:41:00;;;;;;;16.77;14.13;;;16.50;99.90;;;;;;5057642;28;20044;-75
2023/06/17 01:43:26;;;;;;;16.23;14.02;;;16.50;99.90;;;;;;5080902;28;20043;-75
2023/06/17 01:45:51;;;;;;;19.75;13.82;;;16.50;99.90;;;;;;5080661;28;20479;-74
2023/06/17 01:48:17;;;;;;;19.60;14.50;;;16.40;99.90;;;;;;5052056;28;20071;-75
2023/06/17 01:50:43;;;;;;;15.18;13.57;;;16.50;99.90;;;;;;5081190;28;20083;-75
2023/06/17 01:53:09;;;;;;;15.52;12.75;;;16.40;99.90;;;;;;5043512;28;20052;-75
2023/06/17 01:55:35;;;;;;;18.50;14.88;;;16.40;99.90;;;;;;5086839;28;20108;-75
2023/06/17 01:58:00;;;;;;;15.90;13.05;;;16.40;99.90;;;;;;5049569;28;20048;-75
2023/06/17 02:00:26;;;;;;;15.77;13.20;;;16.40;99.90;;;;;;5075504;28;20095;-74
2023/06/17 02:02:52;;;;;;;15.73;13.57;;;16.40;99.90;;;;;;5055921;28;20040;-76
2023/06/17 02:05:19;;;;;;;19.38;13.63;;;16.30;99.90;;;;;;5075477;28;20032;-75
2023/06/17 02:07:45;;;;;;;17.83;15.60;;;16.30;99.90;;;;;;5063590;28;20050;-75
2023/06/17 02:10:11;;;;;;;16.80;13.30;;;16.30;99.90;;;;;;5064775;28;20472;-74
2023/06/17 02:12:37;;;;;;;20.95;16.17;;;16.30;99.90;;;;;;5042739;28;20078;-75
2023/06/17 02:15:03;;;;;;;20.85;15.55;;;16.20;99.90;;;;;;5060308;28;20101;-76
2023/06/17 02:17:29;;;;;;;18.48;14.48;;;16.20;99.90;;;;;;5044463;28;20123;-75
2023/06/17 02:19:54;;;;;;;17.98;16.00;;;16.20;99.90;;;;;;5059615;28;20127;-75
2023/06/17 02:22:21;;;;;;;15.77;13.40;;;16.20;99.90;;;;;;5045291;28;20043;-76
2023/06/17 02:24:46;;;;;;;21.25;14.82;;;16.20;99.90;;;;;;5092373;28;20039;-75
2023/06/17 02:27:12;;;;;;;18.52;14.25;;;16.20;99.90;;;;;;5046915;28;20532;-75
2023/06/17 02:29:38;;;;;;;15.73;14.02;;;16.20;99.90;;;;;;5062197;28;20452;-74
2023/06/17 02:32:04;;;;;;;18.30;14.75;;;16.20;99.90;;;;;;5082421;28;20048;-74
2023/06/17 02:34:33;;;;;;;18.33;15.00;;;16.10;99.90;;;;;;5042529;28;20515;-76
2023/06/17 02:36:59;;;;;;;;;;;16.10;99.90;;;;;;5037770;28;20143;-74
2023/06/17 02:39:25;;;;;;;18.55;14.90;;;16.10;99.90;;;;;;5053348;28;19977;-74
2023/06/17 02:41:50;;;;;;;18.60;15.18;;;16.10;99.90;;;;;;5090514;28;20044;-75
2023/06/17 02:44:16;;;;;;;26.20;15.00;;;16.10;99.90;;;;;;5081468;28;20040;-75
2023/06/17 02:46:42;;;;;;;18.20;15.52;;;16.10;99.90;;;;;;5077970;28;20040;-74
2023/06/17 02:49:10;;;;;;;18.75;15.05;;;16.00;99.90;;;;;;5059819;28;20049;-75
2023/06/17 02:51:38;;;;;;;20.35;15.50;;;16.00;99.90;;;;;;5076037;28;20071;-75
2023/06/17 02:54:05;;;;;;;18.05;14.90;;;16.00;99.90;;;;;;5054253;28;20071;-74
2023/06/17 02:56:31;;;;;;;17.10;15.00;;;16.00;99.90;;;;;;5062074;28;20043;-75
2023/06/17 02:58:57;;;;;;;19.38;16.98;;;15.90;99.90;;;;;;5050851;28;20059;-74
2023/06/17 03:01:23;;;;;;;17.90;15.82;;;15.90;99.90;;;;;;5061731;28;20036;-75
2023/06/17 03:03:48;;;;;;;17.50;15.70;;;15.90;99.90;;;;;;5062241;28;20525;-74
2023/06/17 03:06:15;;;;;;;20.10;16.55;;;15.90;99.90;;;;;;5071059;28;20072;-74
2023/06/17 03:08:41;;;;;;;25.20;18.45;;;15.90;99.90;;;;;;5058073;28;20037;-74
2023/06/17 03:11:07;;;;;;;19.75;17.52;;;15.90;99.90;;;;;;5065100;28;20487;-74
2023/06/17 03:13:32;;;;;;;23.52;16.92;;;15.90;99.90;;;;;;5061273;28;20103;-76
2023/06/17 03:15:59;;;;;;;23.55;17.50;;;15.80;99.90;;;;;;5077818;28;20055;-75
2023/06/17 03:18:28;;;;;;;21.45;16.67;;;15.80;99.90;;;;;;5063303;28;20040;-74
2023/06/17 03:20:54;;;;;;;21.55;17.15;;;15.80;99.90;;;;;;5058461;28;20091;-76
2023/06/17 03:23:21;;;;;;;21.42;18.23;;;15.80;99.90;;;;;;5062522;28;20044;-75
2023/06/17 03:25:50;;;;;;;22.67;17.73;;;15.70;99.90;;;;;;5087076;28;20041;-76
2023/06/17 03:28:17;;;;;;;20.33;17.20;;;15.70;99.90;;;;;;5036915;28;20054;-76
2023/06/17 03:30:43;;;;;;;20.38;18.20;;;15.70;99.90;;;;;;5062245;28;20076;-74
2023/06/17 03:33:09;;;;;;;24.50;18.85;;;15.70;99.90;;;;;;5057333;28;20644;-75
2023/06/17 03:35:35;;;;;;;23.40;19.05;;;15.70;99.90;;;;;;5067193;28;20035;-75
2023/06/17 03:38:01;;;;;;;24.33;19.00;;;15.70;99.90;;;;;;5068775;28;20060;-76
2023/06/17 03:40:27;;;;;;;23.30;19.20;;;15.70;99.90;;;;;;5044222;28;20069;-75
2023/06/17 03:42:54;;;;;;;25.25;19.10;;;15.60;99.90;;;;;;5078393;28;20360;-75
2023/06/17 03:45:20;;;;;;;28.55;18.00;;;15.70;99.90;;;;;;5053822;28;20048;-76
2023/06/17 03:47:46;;;;;;;25.35;20.30;;;15.70;99.90;;;;;;5074819;28;20044;-76
2023/06/17 03:50:13;;;;;;;26.77;19.10;;;15.70;99.90;;;;;;5052210;28;20036;-75
2023/06/17 03:52:39;;;;;;;24.77;21.52;;;15.70;99.90;;;;;;5058296;28;20044;-75
2023/06/17 03:55:07;;;;;;;27.63;22.58;;;15.70;99.90;;;;;;5076165;28;20040;-74
2023/06/17 03:57:32;;;;;;;39.22;29.13;;;15.60;99.90;;;;;;5061274;28;20364;-75
2023/06/17 03:59:58;;;;;;;34.95;28.23;;;15.50;99.90;;;;;;5054012;28;20050;-75
2023/06/17 04:02:24;;;;;;;35.42;27.58;;;15.40;99.90;;;;;;5046271;28;20040;-76
2023/06/17 04:04:52;;;;;;;37.67;28.30;;;15.40;99.90;;;;;;5058122;28;20536;-75
2023/06/17 04:07:19;;;;;;;50.80;31.67;;;15.40;99.90;;;;;;5073122;28;20058;-75
2023/06/17 04:09:45;;;;;;;41.67;30.48;;;15.40;99.90;;;;;;5071096;28;20037;-77
2023/06/17 04:12:11;;;;;;;40.25;28.17;;;15.30;99.90;;;;;;5065556;28;20542;-77
2023/06/17 04:14:38;;;;;;;51.17;31.45;;;15.40;99.90;;;;;;5060554;28;20123;-76
2023/06/17 04:17:06;;;;;;;56.88;34.15;;;15.30;99.90;;;;;;5059970;28;20780;-76
2023/06/17 04:19:37;;;;;;;61.30;35.63;;;15.10;99.90;;;;;;5060924;28;20461;-75
2023/06/17 04:22:04;;;;;;;59.00;34.90;;;15.10;99.90;;;;;;5069403;28;20093;-77
2023/06/17 04:24:30;;;;;;;59.90;32.58;;;15.10;99.90;;;;;;5042483;28;20453;-76
2023/06/17 04:26:55;;;;;;;52.42;30.23;;;15.10;99.90;;;;;;5075201;28;20044;-75
2023/06/17 04:29:23;;;;;;;51.55;29.25;;;15.30;99.90;;;;;;5077858;28;20053;-76
2023/06/17 04:31:49;;;;;;;53.70;32.35;;;15.40;99.90;;;;;;5058837;28;20044;-75
2023/06/17 04:34:25;;;;;;;49.80;28.10;;;15.40;99.90;;;;;;5075735;28;20118;-76
2023/06/17 04:37:00;;;;;;;61.40;33.75;;;15.50;99.90;;;;;;5047018;28;20087;-76
2023/06/17 04:39:26;;;;;;;49.75;30.75;;;15.40;99.90;;;;;;5076990;28;20087;-75
2023/06/17 04:41:53;;;;;;;55.30;31.60;;;15.50;99.90;;;;;;5044078;28;20139;-75
2023/06/17 04:44:19;;;;;;;56.88;31.65;;;15.40;99.90;;;;;;5060069;28;20455;-76
2023/06/17 04:46:45;;;;;;;54.20;31.15;;;15.40;99.90;;;;;;5042248;28;20101;-77
2023/06/17 04:49:11;;;;;;;74.22;37.13;;;15.50;99.90;;;;;;5091044;28;20406;-75
2023/06/17 04:51:40;;;;;;;64.68;35.10;;;15.30;99.90;;;;;;5055012;28;20468;-77
2023/06/17 04:54:06;;;;;;;62.70;34.47;;;15.40;99.90;;;;;;5066779;28;20044;-77
2023/06/17 04:56:32;;;;;;;70.35;36.05;;;15.30;99.90;;;;;;5049490;28;20055;-77
2023/06/17 04:58:58;;;;;;;68.13;34.55;;;15.40;99.90;;;;;;5063652;28;20377;-75
2023/06/17 05:01:23;;;;;;;66.97;34.55;;;15.40;99.90;;;;;;5077793;28;20047;-77
2023/06/17 05:03:49;;;;;;;66.07;34.83;;;15.20;99.90;;;;;;5078631;28;20334;-77
2023/06/17 05:06:15;;;;;;;70.25;35.10;;;15.20;99.90;;;;;;5059830;28;20388;-76
2023/06/17 05:08:41;;;;;;;67.68;33.83;;;15.20;99.90;;;;;;5043734;28;20126;-75
2023/06/17 05:11:06;;;;;;;69.25;37.25;;;15.30;99.90;;;;;;5064804;28;20048;-76
2023/06/17 05:13:32;;;;;;;71.30;35.20;;;15.30;99.90;;;;;;5078625;28;20048;-76
2023/06/17 05:15:58;;;;;;;61.20;35.03;;;15.30;99.90;;;;;;5081102;28;20044;-76
2023/06/17 05:18:24;;;;;;;60.53;35.05;;;15.30;99.90;;;;;;5078146;28;20044;-75
2023/06/17 05:20:50;;;;;;;63.00;33.97;;;15.40;99.90;;;;;;5066944;28;20048;-76
2023/06/17 05:23:16;;;;;;;63.92;35.33;;;15.40;99.90;;;;;;5071742;28;20047;-76
2023/06/17 05:25:42;;;;;;;56.63;34.15;;;15.40;99.90;;;;;;5067095;28;20594;-75
2023/06/17 05:28:10;;;;;;;56.90;32.67;;;15.40;99.90;;;;;;5056814;28;20040;-75
2023/06/17 05:30:38;;;;;;;49.90;31.95;;;15.60;99.90;;;;;;5059723;28;20055;-76
2023/06/17 05:33:04;;;;;;;;;;;15.60;99.90;;;;;;5043299;28;20048;-76
2023/06/17 05:35:30;;;;;;;52.88;32.08;;;15.70;99.90;;;;;;5076262;28;19978;-77
2023/06/17 05:37:56;;;;;;;58.00;33.25;;;15.70;99.90;;;;;;5071380;28;20040;-77
2023/06/17 05:40:21;;;;;;;46.72;30.35;;;15.60;99.90;;;;;;5084159;28;20126;-76
2023/06/17 05:42:47;;;;;;;50.88;32.88;;;15.60;99.90;;;;;;5072742;28;20837;-75
2023/06/17 05:45:13;;;;;;;49.42;30.83;;;15.70;99.90;;;;;;5058698;28;20479;-77
2023/06/17 05:47:38;;;;;;;50.60;31.40;;;15.80;99.90;;;;;;5060691;28;20036;-76
2023/06/17 05:50:05;;;;;;;52.97;31.83;;;15.80;99.90;;;;;;5080039;28;20138;-75
2023/06/17 05:52:30;;;;;;;52.60;33.17;;;15.90;99.90;;;;;;5022728;28;20044;-75
2023/06/17 05:54:56;;;;;;;49.45;32.35;;;15.90;99.90;;;;;;5063531;28;20040;-75
2023/06/17 05:57:22;;;;;;;45.42;30.35;;;15.80;99.90;;;;;;5048610;28;20621;-76
2023/06/17 05:59:47;;;;;;;44.13;27.55;;;16.00;99.90;;;;;;5076727;28;20076;-75
2023/06/17 06:02:13;;;;;;;46.38;30.75;;;16.00;99.90;;;;;;5093884;28;20044;-76
2023/06/17 06:04:39;;;;;;;40.60;26.73;;;16.00;99.90;;;;;;5077449;28;20040;-76
2023/06/17 06:07:05;;;;;;;42.30;28.17;;;16.10;99.90;;;;;;5078423;28;20443;-76
2023/06/17 06:09:32;;;;;;;40.13;27.10;;;16.10;99.90;;;;;;5092038;28;20090;-76
2023/06/17 06:11:58;;;;;;;41.45;27.45;;;16.00;99.90;;;;;;5056853;28;20376;-76
2023/06/17 06:14:24;;;;;;;40.40;26.00;;;15.90;99.90;;;;;;5056972;28;20040;-76
2023/06/17 06:16:50;;;;;;;35.88;25.00;;;16.00;99.90;;;;;;5044635;28;20111;-75
2023/06/17 06:19:15;;;;;;;35.88;25.42;;;16.00;99.90;;;;;;5077220;28;20044;-75
2023/06/17 06:21:41;;;;;;;36.10;24.83;;;16.10;99.90;;;;;;5029780;28;20131;-76
2023/06/17 06:24:07;;;;;;;36.05;24.75;;;16.20;99.90;;;;;;5044970;28;20131;-75
2023/06/17 06:26:33;;;;;;;42.55;27.15;;;16.20;99.90;;;;;;5079654;28;20043;-76
2023/06/17 06:28:58;;;;;;;35.83;26.52;;;16.20;99.90;;;;;;5062995;28;20119;-75
2023/06/17 06:31:24;;;;;;;40.35;25.75;;;16.10;99.90;;;;;;5075302;28;20591;-75
2023/06/17 06:33:56;;;;;;;39.40;25.75;;;16.10;99.90;;;;;;5062996;28;20115;-76
2023/06/17 06:36:21;;;;;;;36.53;26.30;;;16.20;99.90;;;;;;5049470;28;20119;-75
2023/06/17 06:38:47;;;;;;;38.90;26.27;;;16.20;99.90;;;;;;5070118;28;20483;-75
2023/06/17 06:41:13;;;;;;;35.28;25.48;;;16.10;99.90;;;;;;5053915;28;20143;-75
2023/06/17 06:43:39;;;;;;;36.83;25.33;;;16.00;99.90;;;;;;5058449;28;20036;-77
2023/06/17 06:46:05;;;;;;;40.33;25.40;;;16.10;99.90;;;;;;5067969;28;20136;-75
2023/06/17 06:48:31;;;;;;;34.20;25.98;;;16.20;99.90;;;;;;5042236;28;20422;-76
2023/06/17 06:50:57;;;;;;;37.03;26.35;;;16.30;99.90;;;;;;5064316;28;20035;-76
2023/06/17 06:53:24;;;;;;;38.70;25.52;;;16.20;99.90;;;;;;5072487;28;20101;-75
2023/06/17 06:55:50;;;;;;;35.63;24.33;;;16.30;99.90;;;;;;5065874;28;20163;-77
2023/06/17 06:58:16;;;;;;;36.63;25.38;;;16.30;99.90;;;;;;5061748;28;20052;-76
2023/06/17 07:00:41;;;;;;;34.95;23.33;;;16.40;99.90;;;;;;5057682;28;20052;-75
2023/06/17 07:03:07;;;;;;;33.45;21.48;;;16.40;99.90;;;;;;5073043;28;20495;-75
2023/06/17 07:05:33;;;;;;;41.80;23.80;;;16.50;99.90;;;;;;5064361;28;20039;-75
2023/06/17 07:08:00;;;;;;;37.03;24.85;;;16.40;99.90;;;;;;5081144;28;20040;-75
2023/06/17 07:10:25;;;;;;;40.63;25.35;;;16.50;99.90;;;;;;5078182;28;20044;-76
2023/06/17 07:12:51;;;;;;;37.45;25.95;;;16.50;99.90;;;;;;5068817;28;20040;-76
2023/06/17 07:15:17;;;;;;;37.30;25.85;;;16.50;99.90;;;;;;5055147;28;20473;-75
2023/06/17 07:17:43;;;;;;;37.72;26.55;;;16.60;99.90;;;;;;5041290;28;20135;-74
2023/06/17 07:20:09;;;;;;;41.75;25.95;;;16.60;99.90;;;;;;5056074;28;20055;-75
2023/06/17 07:22:35;;;;;;;42.55;27.60;;;16.70;99.90;;;;;;5090482;28;20123;-74
2023/06/17 07:25:01;;;;;;;44.03;28.42;;;16.70;99.90;;;;;;5056811;28;20528;-75
2023/06/17 07:27:26;;;;;;;42.65;27.60;;;16.60;99.90;;;;;;5053113;28;20067;-76
2023/06/17 07:29:52;;;;;;;38.65;26.15;;;16.50;99.90;;;;;;5069335;28;20108;-78
2023/06/17 07:32:18;;;;;;;40.58;27.65;;;16.40;99.90;;;;;;5073083;28;20515;-77
2023/06/17 07:34:44;;;;;;;37.50;25.95;;;16.40;99.90;;;;;;5044348;28;20048;-77
2023/06/17 07:37:09;;;;;;;39.05;26.63;;;16.40;99.90;;;;;;5060964;28;20043;-77
2023/06/17 07:39:35;;;;;;;37.67;24.73;;;16.60;99.90;;;;;;5071371;28;20372;-78
2023/06/17 07:42:01;;;;;;;36.85;24.27;;;16.70;99.90;;;;;;5048331;28;20369;-77
2023/06/17 07:44:28;;;;;;;37.17;24.48;;;16.80;99.90;;;;;;5076889;28;20032;-77
2023/06/17 07:46:55;;;;;;;36.67;23.80;;;16.80;99.90;;;;;;5089257;28;20109;-77
2023/06/17 07:49:21;;;;;;;33.42;22.75;;;16.90;99.90;;;;;;5064725;28;20043;-78
2023/06/17 07:51:46;;;;;;;34.92;23.83;;;16.90;99.90;;;;;;5069687;28;20052;-78
2023/06/17 07:54:13;;;;;;;33.70;23.58;;;17.00;99.90;;;;;;5067042;28;20047;-78
2023/06/17 07:56:39;;;;;;;33.53;23.05;;;17.00;99.90;;;;;;5044668;28;20334;-78
2023/06/17 07:59:04;;;;;;;31.33;21.42;;;17.10;99.90;;;;;;5076249;28;20486;-78
2023/06/17 08:01:33;;;;;;;32.08;22.48;;;17.20;99.90;;;;;;5044123;28;20071;-78
2023/06/17 08:03:59;;;;;;;28.52;21.15;;;17.30;99.90;;;;;;5068645;28;20032;-78
2023/06/17 08:06:25;;;;;;;26.42;20.75;;;17.40;99.90;;;;;;5057882;28;20047;-78
2023/06/17 08:08:53;;;;;;;30.30;21.98;;;17.50;99.90;;;;;;5054618;28;20123;-77
2023/06/17 08:11:19;;;;;;;31.75;23.27;;;17.70;99.90;;;;;;5080763;28;20136;-78
2023/06/17 08:13:55;;;;;;;30.45;23.58;;;17.80;99.90;;;;;;5072904;28;20093;-79
2023/06/17 08:16:21;;;;;;;32.17;22.73;;;17.40;99.90;;;;;;5047123;28;20041;-78
2023/06/17 08:18:47;;;;;;;33.45;24.60;;;17.30;99.90;;;;;;5088690;28;20063;-78
2023/06/17 08:21:12;;;;;;;31.17;24.02;;;17.30;99.90;;;;;;5060611;28;20366;-78
2023/06/17 08:23:38;;;;;;;30.00;22.27;;;17.30;99.90;;;;;;5047939;28;20044;-77
2023/06/17 08:26:06;;;;;;;36.22;22.75;;;17.30;99.90;;;;;;5070134;28;20515;-77
2023/06/17 08:28:31;;;;;;;32.38;21.50;;;17.40;99.90;;;;;;5065496;28;20524;-78
2023/06/17 08:30:57;;;;;;;30.60;22.88;;;17.40;99.90;;;;;;5045357;28;20072;-77
2023/06/17 08:33:23;;;;;;;31.00;21.67;;;17.40;99.90;;;;;;5023743;28;20107;-77
2023/06/17 08:35:49;;;;;;;34.42;22.10;;;17.50;99.90;;;;;;5055686;28;20055;-78
2023/06/17 08:38:15;;;;;;;29.60;22.00;;;17.50;99.90;;;;;;5066595;28;20049;-77
2023/06/17 08:40:44;;;;;;;26.67;20.55;;;17.50;99.90;;;;;;5076955;28;20055;-79
2023/06/17 08:43:10;;;;;;;29.05;21.10;;;17.60;99.90;;;;;;5050672;28;20040;-77
2023/06/17 08:45:36;;;;;;;27.80;19.20;;;17.80;99.90;;;;;;5030140;28;20135;-79
2023/06/17 08:48:02;;;;;;;28.92;18.80;;;17.90;99.90;;;;;;5049539;28;20063;-78
2023/06/17 08:50:28;;;;;;;28.88;18.98;;;17.90;99.90;;;;;;5033933;28;20491;-78
2023/06/17 08:52:54;;;;;;;25.23;18.80;;;18.00;99.90;;;;;;5054067;28;20070;-77
2023/06/17 08:55:19;;;;;;;23.77;18.05;;;18.10;99.90;;;;;;5036238;28;20040;-78
2023/06/17 08:57:47;;;;;;;26.40;18.88;;;18.20;99.90;;;;;;5041911;28;20084;-78
2023/06/17 09:00:14;;;;;;;23.08;18.02;;;18.30;99.90;;;;;;5054046;28;20469;-78
2023/06/17 09:02:42;;;;;;;23.27;18.55;;;18.40;99.90;;;;;;5069394;28;20482;-77
2023/06/17 09:05:08;;;;;;;26.13;19.17;;;18.50;99.90;;;;;;5010987;28;20045;-77
2023/06/17 09:07:33;;;;;;;24.38;18.65;;;18.40;99.90;;;;;;5069650;28;20040;-77
2023/06/17 09:10:05;;;;;;;25.08;19.42;;;18.50;99.90;;;;;;5065693;28;20051;-78
2023/06/17 09:12:45;;;;;;;23.25;16.98;;;18.60;99.90;;;;;;5044465;28;20051;-77
2023/06/17 09:15:15;;;;;;;24.75;17.80;;;18.60;99.90;;;;;;5059183;28;20040;-79
2023/06/17 09:17:43;;;;;;;24.50;19.45;;;18.70;99.90;;;;;;5072766;28;20054;-77
2023/06/17 09:20:12;;;;;;;24.52;17.33;;;18.60;99.90;;;;;;5071805;28;20060;-77
2023/06/17 09:22:42;;;;;;;23.48;18.42;;;18.60;99.90;;;;;;5052402;28;20043;-77
2023/06/17 09:25:12;;;;;;;26.83;19.08;;;18.80;99.90;;;;;;5041463;28;20063;-76
2023/06/17 09:27:51;;;;;;;24.40;18.48;;;18.90;99.90;;;;;;5057975;28;20037;-77
2023/06/17 09:30:22;;;;;;;25.15;18.17;;;18.80;99.90;;;;;;5065084;28;20583;-77
2023/06/17 09:32:51;;;;;;;27.65;19.52;;;18.90;99.90;;;;;;5054260;28;20056;-78
2023/06/17 09:35:17;;;;;;;28.02;19.05;;;18.90;99.90;;;;;;5065034;28;20465;-78
2023/06/17 09:37:51;;;;;;;24.80;16.95;;;18.90;99.90;;;;;;5059821;28;20118;-77
2023/06/17 09:40:17;;;;;;;27.80;17.40;;;18.90;99.90;;;;;;5036294;28;20048;-77
2023/06/17 09:42:43;;;;;;;26.48;18.92;;;19.10;99.90;;;;;;5077330;28;20050;-77
2023/06/17 09:45:11;;;;;;;28.67;19.60;;;19.00;99.90;;;;;;5079191;28;20105;-77
2023/06/17 09:47:37;;;;;;;29.40;18.65;;;18.90;99.90;;;;;;5044936;28;20036;-77
2023/06/17 09:50:04;;;;;;;25.00;17.27;;;18.90;99.90;;;;;;5063603;28;20040;-77
2023/06/17 09:52:32;;;;;;;22.02;16.77;;;18.90;99.90;;;;;;5029124;28;20066;-77
2023/06/17 09:54:58;;;;;;;22.45;16.98;;;19.00;99.90;;;;;;5039634;28;20052;-77
2023/06/17 09:57:26;;;;;;;23.40;17.02;;;19.00;99.90;;;;;;5060575;28;20057;-77
2023/06/17 09:59:54;;;;;;;27.70;17.90;;;19.20;99.90;;;;;;5080266;28;20040;-77
2023/06/17 10:02:20;;;;;;;24.55;16.50;;;19.30;99.90;;;;;;5053879;28;20047;-78
2023/06/17 10:04:46;;;;;;;23.70;17.00;;;19.30;99.90;;;;;;5065339;28;20387;-77
2023/06/17 10:07:12;;;;;;;24.95;19.02;;;19.50;99.90;;;;;;5048607;28;20045;-78
2023/06/17 10:09:38;;;;;;;23.05;18.05;;;19.20;99.90;;;;;;5022491;28;20725;-78
2023/06/17 10:12:05;;;;;;;22.63;17.65;;;19.20;99.90;;;;;;5070675;28;20048;-78
2023/06/17 10:14:32;;;;;;;24.88;16.42;;;19.50;99.90;;;;;;5064428;28;20472;-78
2023/06/17 10:16:58;;;;;;;24.15;17.95;;;19.60;99.90;;;;;;5064860;28;20040;-77
2023/06/17 10:19:26;;;;;;;25.63;19.45;;;19.50;99.90;;;;;;5048177;28;20067;-78
2023/06/17 10:21:54;;;;;;;29.20;17.73;;;19.50;99.90;;;;;;5070444;28;20045;-77
2023/06/17 10:24:20;;;;;;;;;;;19.50;99.90;;;;;;5059448;28;20037;-77
2023/06/17 10:26:50;;;;;;;23.13;18.13;;;19.70;99.90;;;;;;5080756;28;19926;-77
2023/06/17 10:29:16;;;;;;;31.90;18.85;;;19.70;99.90;;;;;;5096106;28;20040;-77
2023/06/17 10:31:45;;;;;;;25.58;18.02;;;19.90;99.90;;;;;;5055670;28;20091;-78
2023/06/17 10:34:14;;;;;;;;;;;19.90;99.90;;;;;;5061444;28;20044;-81
2023/06/17 10:36:39;;;;;;;23.52;17.02;;;20.00;99.90;;;;;;5074129;28;19916;-79
2023/06/17 10:39:12;;;;;;;26.13;18.13;;;20.00;99.90;;;;;;5064793;28;20040;-79
2023/06/17 10:41:38;;;;;;;22.98;17.08;;;19.90;99.90;;;;;;5048210;28;20044;-77
2023/06/17 10:44:30;;;;;;;24.17;17.58;;;19.80;99.90;;;;;;5098936;28;20461;-78
2023/06/17 10:46:56;;;;;;;25.10;19.25;;;19.90;99.90;;;;;;5084908;28;20389;-76
2023/06/17 10:49:36;;;;;;;22.35;16.67;;;20.00;99.90;;;;;;5045631;28;20067;-75
2023/06/17 10:52:03;;;;;;;25.40;17.25;;;20.20;99.90;;;;;;5036819;28;20040;-77
2023/06/17 10:54:30;;;;;;;18.70;15.93;;;20.30;99.90;;;;;;5050304;28;20040;-77
2023/06/17 10:56:56;;;;;;;24.20;18.17;;;20.50;99.90;;;;;;5036976;28;20063;-79
2023/06/17 10:59:29;;;;;;;25.25;17.70;;;20.50;99.90;;;;;;5038534;28;20201;-78
2023/06/17 11:02:03;;;;;;;22.38;17.55;;;20.40;99.90;;;;;;5050494;28;20035;-77
2023/06/17 11:04:32;;;;;;;22.40;14.88;;;20.60;99.90;;;;;;5086292;28;20044;-77
2023/06/17 11:07:02;;;;;;;23.10;17.13;;;20.80;99.90;;;;;;5043201;28;20364;-77
2023/06/17 11:09:29;;;;;;;19.73;14.98;;;21.00;99.90;;;;;;5043368;28;20473;-77
2023/06/17 11:11:55;;;;;;;24.40;15.52;;;21.10;99.90;;;;;;5064663;28;20147;-78
2023/06/17 11:14:21;;;;;;;21.88;16.73;;;21.30;99.90;;;;;;5064227;28;20384;-77
2023/06/17 11:16:49;;;;;;;21.42;15.00;;;21.10;99.50;;;;;;5069931;28;20131;-79
2023/06/17 11:19:15;;;;;;;19.38;16.55;;;21.20;99.90;;;;;;5053661;28;20055;-77
2023/06/17 11:21:41;;;;;;;21.50;15.75;;;21.30;99.20;;;;;;5057960;28;20036;-77
2023/06/17 11:24:07;;;;;;;21.20;15.57;;;21.20;99.30;;;;;;5060500;28;20098;-79
2023/06/17 11:26:33;;;;;;;18.65;14.13;;;21.40;99.20;;;;;;5050408;28;20054;-80
2023/06/17 11:28:59;;;;;;;19.30;14.75;;;21.50;99.20;;;;;;5035076;28;20036;-78
2023/06/17 11:31:26;;;;;;;20.70;14.02;;;21.60;98.90;;;;;;5060896;28;20108;-77
2023/06/17 11:33:58;;;;;;;18.50;15.25;;;21.60;98.60;;;;;;5043605;28;20075;-78
2023/06/17 11:36:26;;;;;;;20.38;16.40;;;21.60;98.80;;;;;;5058324;28;20056;-77
2023/06/17 11:38:57;;;;;;;20.05;13.77;;;21.70;98.90;;;;;;5046821;28;20104;-76
2023/06/17 11:41:23;;;;;;;19.23;16.13;;;22.00;98.70;;;;;;5051569;28;20048;-77
2023/06/17 11:43:50;;;;;;;20.10;14.70;;;21.90;97.70;;;;;;5054255;28;20047;-79
2023/06/17 11:46:37;;;;;;;22.40;14.82;;;22.00;98.30;;;;;;5059416;28;20036;-78
2023/06/17 11:49:05;;;;;;;23.60;17.67;;;22.10;98.10;;;;;;5065298;28;20044;-77
2023/06/17 11:51:32;;;;;;;21.02;16.90;;;22.00;97.60;;;;;;5063142;28;20383;-78
2023/06/17 11:53:58;;;;;;;19.40;15.80;;;21.90;97.90;;;;;;5078307;28;20043;-78
2023/06/17 11:56:25;;;;;;;18.75;14.02;;;22.10;97.50;;;;;;5049784;28;20044;-76
2023/06/17 11:58:54;;;;;;;18.70;13.65;;;22.20;97.00;;;;;;5081176;28;20757;-79
2023/06/17 12:01:26;;;;;;;19.60;14.55;;;22.40;96.70;;;;;;5039338;28;20049;-76
2023/06/17 12:03:55;;;;;;;15.57;13.00;;;22.30;96.50;;;;;;5068717;28;20036;-78
2023/06/17 12:06:21;;;;;;;16.33;12.05;;;22.30;97.10;;;;;;5076622;28;20032;-78
2023/06/17 12:09:02;;;;;;;16.35;12.75;;;22.50;96.80;;;;;;5086321;28;20044;-78
2023/06/17 12:11:32;;;;;;;18.02;12.80;;;22.70;95.60;;;;;;5074018;28;20472;-78
2023/06/17 12:13:58;;;;;;;19.55;12.18;;;22.70;95.30;;;;;;5076481;28;20040;-78
2023/06/17 12:16:30;;;;;;;21.73;13.98;;;22.70;95.50;;;;;;5049345;28;20046;-78
2023/06/17 12:18:57;;;;;;;17.77;13.75;;;22.60;95.70;;;;;;5059186;28;20422;-77
2023/06/17 12:21:23;;;;;;;17.50;14.38;;;22.70;95.50;;;;;;5069368;28;20071;-77
2023/06/17 12:23:51;;;;;;;19.77;13.55;;;22.90;95.30;;;;;;5043508;28;20670;-77
2023/06/17 12:26:18;;;;;;;19.33;14.02;;;22.90;94.80;;;;;;5090153;28;20036;-76
2023/06/17 12:28:44;;;;;;;18.63;13.55;;;23.00;95.00;;;;;;5040920;28;20048;-79